Flight Track Log - Related Links

Times and Time Zones

All times are in EDT time to prevent confusion due to time zone crossing. See the EJA729 flight status page for this flight to view local times or setup timezone preferences in your user account.

Time Position Orientation Groundspeed Altitude Reporting Facility
EDT Latitude Longitude Course Direction KTS MPH feet Rate Location/Type
Mon 06:59:45 AM 40.8333 -73.9167 270° West 203 234 3,100  Level New York TRACON
Mon 07:00:45 AM 40.8833 -73.9833 315° West 264 304 5,300 2,750 Climbing New York TRACON
Mon 07:01:45 AM 40.8833 -74.0833 270° West 272 313 8,600 3,200 Climbing New York TRACON
Mon 07:02:45 AM 40.8500 -74.1833 246° West 284 327 11,700 2,750 Climbing New York TRACON
Mon 07:03:45 AM 40.8333 -74.2833 258° West 323 372 14,100 1,650 Climbing New York TRACON
Mon 07:04:45 AM 40.8167 -74.4167 261° West 353 406 15,000 900 Climbing New York TRACON
Mon 07:05:00 AM 40.7000 -74.7643 270° West  Level FlightAware Approximate
Mon 07:05:45 AM 40.7833 -74.5333 249° West 344 396 15,900  Level New York TRACON
Mon 07:07:28 AM 40.7511 -74.7375 258° West 361 415 17,000 994 Climbing New York Center
Mon 07:08:28 AM 40.7214 -74.8783 254° West 356 410 18,600 1,537 Climbing New York Center
Mon 07:09:29 AM 40.6983 -74.9972 256° West 361 415 20,100 1,721 Climbing New York Center
Mon 07:10:30 AM 40.6606 -75.1261 249° West 369 425 22,100 1,881 Climbing New York Center
Mon 07:11:27 AM 40.6058 -75.2486 240° Southwest 385 443 23,800 1,641 Climbing New York Center
Mon 07:12:27 AM 40.5489 -75.3731 239° Southwest 390 449 25,300 1,438 Climbing New York Center
Mon 07:13:28 AM 40.4939 -75.5006 240° Southwest 401 461 26,700 1,438 Climbing New York Center
Mon 07:14:28 AM 40.4347 -75.6247 238° Southwest 406 467 28,200 1,488 Climbing New York Center
Mon 07:15:29 AM 40.3772 -75.7542 240° Southwest 411 473 29,700 908 Climbing New York Center
Mon 07:16:27 AM 40.3133 -75.8856 238° Southwest 411 473 30,000 151 Climbing New York Center
Mon 07:17:28 AM 40.2469 -76.0194 237° Southwest 423 487 30,000  Level New York Center
Mon 07:18:29 AM 40.1800 -76.1611 238° Southwest 444 511 30,000  Level New York Center
Mon 07:19:28 AM 40.1086 -76.3103 238° Southwest 450 518 30,000  Level New York Center
Mon 07:20:29 AM 40.0456 -76.4492 239° Southwest 450 518 30,000  Level New York Center
Mon 07:21:27 AM 39.9828 -76.5847 239° Southwest 450 518 30,000  Level New York Center
Mon 07:23:52 AM 39.8272 -76.9125 238° Southwest 448 516 30,000  Level Washington Center
Mon 07:24:53 AM 39.7653 -77.0464 239° Southwest 448 516 30,000  Level Washington Center
Mon 07:25:51 AM 39.6989 -77.1853 238° Southwest 448 516 30,000  Level Washington Center
Mon 07:26:52 AM 39.6367 -77.3214 239° Southwest 448 516 30,000  Level Washington Center
Mon 07:27:53 AM 39.5742 -77.4544 239° Southwest 448 516 30,000  Level Washington Center
Mon 07:28:53 AM 39.5097 -77.5900 238° Southwest 448 516 30,000  Level Washington Center
Mon 07:29:51 AM 39.4469 -77.7228 239° Southwest 448 516 30,000  Level Washington Center
Mon 07:30:52 AM 39.3819 -77.8578 238° Southwest 448 516 30,000  Level Washington Center
Mon 07:31:53 AM 39.3272 -77.9956 243° Southwest 443 510 30,000  Level Washington Center
Mon 07:32:51 AM 39.2767 -78.1225 243° Southwest 438 504 30,000  Level Washington Center
Mon 07:33:52 AM 39.2236 -78.2628 244° Southwest 438 504 30,000  Level Washington Center
Mon 07:34:53 AM 39.1617 -78.4131 242° Southwest 438 504 30,000  Level Washington Center
Mon 07:35:51 AM 39.1108 -78.5394 243° Southwest 443 510 30,000  Level Washington Center
Mon 07:36:52 AM 39.0553 -78.6789 243° Southwest 443 510 30,000  Level Washington Center
Mon 07:37:52 AM 38.9994 -78.8183 243° Southwest 443 510 30,000  Level Washington Center
Mon 07:38:53 AM 38.9414 -78.9544 241° Southwest 443 510 30,000  Level Washington Center
Mon 07:39:51 AM 38.8853 -79.0933 243° Southwest 443 510 30,000  Level Washington Center
Mon 07:40:52 AM 38.8353 -79.2375 246° West 443 510 30,000  Level Washington Center
Mon 07:41:53 AM 38.8097 -79.3881 258° West 443 510 30,000  Level Washington Center
Mon 07:42:50 AM 38.7819 -79.5383 257° West 438 504 30,000  Level Washington Center
Mon 07:43:53 AM 38.7533 -79.7072 258° West 438 504 30,000  Level Washington Center
Mon 07:44:51 AM 38.7256 -79.8442 255° West 444 511 30,000  Level Washington Center
Mon 07:45:33 AM 38.7008 -79.9583 255° West 441 507 30,000  Level Indianapolis Center
Mon 07:46:35 AM 38.6733 -80.1097 257° West 439 505 30,000  Level Indianapolis Center
Mon 07:47:37 AM 38.6442 -80.2614 256° West 439 505 30,000  Level Indianapolis Center
Mon 07:48:38 AM 38.6164 -80.4117 257° West 435 501 30,000  Level Indianapolis Center
Mon 07:49:40 AM 38.5886 -80.5608 257° West 432 497 30,000  Level Indianapolis Center
Mon 07:50:41 AM 38.5594 -80.7122 256° West 438 504 30,000  Level Indianapolis Center
Mon 07:51:43 AM 38.5306 -80.8667 257° West 442 509 30,000  Level Indianapolis Center
Mon 07:52:45 AM 38.5222 -81.0228 266° West 443 510 30,000  Level Indianapolis Center
Mon 07:53:47 AM 38.5139 -81.2144 267° West 448 516 30,000  Level Indianapolis Center
Mon 07:54:48 AM 38.5058 -81.3739 266° West 446 513 30,000  Level Indianapolis Center
Mon 07:55:50 AM 38.4989 -81.5367 267° West 450 518 30,000  Level Indianapolis Center
Mon 07:56:52 AM 38.4919 -81.6989 267° West 450 518 30,000  Level Indianapolis Center
Mon 07:57:54 AM 38.4850 -81.8594 267° West 450 518 30,000  Level Indianapolis Center
Mon 07:58:56 AM 38.4767 -82.0194 266° West 449 517 30,000  Level Indianapolis Center
Mon 07:59:57 AM 38.4686 -82.1783 266° West 449 517 30,000  Level Indianapolis Center
Mon 08:00:59 AM 38.4603 -82.3411 266° West 456 525 30,000  Level Indianapolis Center
Mon 08:02:01 AM 38.4508 -82.5239 266° West 457 526 30,000  Level Indianapolis Center
Mon 08:03:03 AM 38.4411 -82.6872 266° West 461 531 30,000  Level Indianapolis Center
Mon 08:04:05 AM 38.4322 -82.8514 266° West 464 534 30,000  Level Indianapolis Center
Mon 08:05:07 AM 38.4233 -83.0161 266° West 466 536 30,000  Level Indianapolis Center
Mon 08:06:09 AM 38.4119 -83.2069 266° West 465 535 30,000  Level Indianapolis Center
Mon 08:07:11 AM 38.4017 -83.3708 265° West 465 535 30,000  Level Indianapolis Center
Mon 08:08:13 AM 38.3914 -83.5339 265° West 463 533 30,000  Level Indianapolis Center
Mon 08:09:15 AM 38.3806 -83.6983 265° West 465 535 30,000  Level Indianapolis Center
Mon 08:10:17 AM 38.3703 -83.8619 265° West 465 535 30,000  Level Indianapolis Center
Mon 08:11:19 AM 38.3586 -84.0267 265° West 467 537 30,000  Level Indianapolis Center
Mon 08:12:21 AM 38.3461 -84.2186 265° West 466 536 30,000  Level Indianapolis Center
Mon 08:13:23 AM 38.3350 -84.3814 265° West 463 533 30,000  Level Indianapolis Center
Mon 08:14:25 AM 38.3228 -84.5442 265° West 461 531 30,000  Level Indianapolis Center
Mon 08:15:27 AM 38.3108 -84.7064 265° West 461 531 30,000  Level Indianapolis Center
Mon 08:16:29 AM 38.2989 -84.8697 265° West 463 533 30,000  Level Indianapolis Center
Mon 08:17:31 AM 38.2850 -85.0589 265° West 462 532 30,000 48 Level Indianapolis Center
Mon 08:18:33 AM 38.2731 -85.2153 264° West 465 535 30,100 774 Climbing Indianapolis Center
Mon 08:19:35 AM 38.2631 -85.3781 266° West 462 532 31,600 1,452 Climbing Indianapolis Center
Mon 08:20:37 AM 38.2633 -85.5325 270° West 442 509 33,100 1,161 Climbing Indianapolis Center
Mon 08:21:39 AM 38.2608 -85.6869 269° West 436 502 34,000 435 Climbing Indianapolis Center
Mon 08:22:41 AM 38.2578 -85.8472 269° West 448 516 34,000  Level Indianapolis Center
Mon 08:23:43 AM 38.2550 -86.0450 269° West 463 533 34,000  Level Indianapolis Center
Mon 08:24:45 AM 38.2525 -86.2092 269° West 461 531 34,000  Level Indianapolis Center
Mon 08:25:47 AM 38.2492 -86.3719 269° West 460 529 34,000  Level Indianapolis Center
Mon 08:26:49 AM 38.2458 -86.5350 269° West 459 528 34,000  Level Indianapolis Center
Mon 08:27:52 AM 38.2422 -86.6981 268° West 459 528 34,000  Level Indianapolis Center
Mon 08:28:54 AM 38.2381 -86.8608 268° West 457 526 34,000  Level Indianapolis Center
Mon 08:29:56 AM 38.2342 -87.0456 269° West 460 529 34,000  Level Indianapolis Center
Mon 08:30:58 AM 38.2294 -87.2058 268° West 457 526 34,000  Level Indianapolis Center
Mon 08:32:00 AM 38.2253 -87.3597 268° West 458 527 34,000  Level Indianapolis Center
Mon 08:33:02 AM 38.2206 -87.5231 268° West 458 527 34,000  Level Indianapolis Center
Mon 08:34:04 AM 38.2142 -87.7197 268° West 461 531 34,000  Level Indianapolis Center
Mon 08:35:06 AM 38.2097 -87.8861 268° West 467 537 34,000  Level Indianapolis Center
Mon 08:36:08 AM 38.2033 -88.0547 267° West 473 544 34,000  Level Indianapolis Center
Mon 08:37:10 AM 38.1972 -88.2222 267° West 474 545 34,000 339 Level Indianapolis Center
Mon 08:38:12 AM 38.1914 -88.3881 267° West 471 542 34,700 919 Climbing Indianapolis Center
Mon 08:39:14 AM 38.1847 -88.5486 267° West 458 527 35,900 629 Climbing Indianapolis Center
Mon 08:40:16 AM 38.1789 -88.7089 267° West 454 522 36,000 48 Climbing Indianapolis Center
Mon 08:41:18 AM 38.1711 -88.9064 267° West 465 535 36,000  Level Indianapolis Center
Mon 08:42:20 AM 38.1642 -89.0725 267° West 468 539 36,000  Level Indianapolis Center
Mon 08:43:22 AM 38.1572 -89.2389 267° West 470 541 36,000  Level Indianapolis Center
Mon 08:44:24 AM 38.1508 -89.4042 267° West 469 540 36,000  Level Indianapolis Center
Mon 08:45:43 AM 38.1386 -89.6317 266° West 464 534 36,000  Level Kansas City Center
Mon 08:46:44 AM 38.1322 -89.7844 267° West 462 532 36,000 683 Level Kansas City Center
Mon 08:47:46 AM 38.1219 -89.9700 266° West 462 532 37,400 968 Climbing Kansas City Center
Mon 08:48:48 AM 38.1147 -90.1067 266° West 455 524 38,000 293 Climbing Kansas City Center
Mon 08:49:49 AM 38.1056 -90.2672 266° West 455 524 38,000  Level Kansas City Center
Mon 08:50:51 AM 38.0972 -90.4286 266° West 457 526 38,000  Level Kansas City Center
Mon 08:51:53 AM 38.0878 -90.5903 266° West 458 527 38,000  Level Kansas City Center
Mon 08:52:54 AM 38.0769 -90.7850 266° West 459 528 38,000  Level Kansas City Center
Mon 08:53:56 AM 38.0664 -90.9447 265° West 457 526 38,000  Level Kansas City Center
Mon 08:54:58 AM 38.0553 -91.1136 265° West 456 525 38,000  Level Kansas City Center
Mon 08:55:59 AM 38.0464 -91.2747 266° West 457 526 38,000  Level Kansas City Center
Mon 08:57:01 AM 38.0361 -91.4322 265° West 451 519 38,000  Level Kansas City Center
Mon 08:58:03 AM 38.0258 -91.5903 265° West 449 517 38,000  Level Kansas City Center
Mon 08:59:05 AM 38.0167 -91.7481 266° West 450 518 38,000  Level Kansas City Center
Mon 09:00:07 AM 38.0064 -91.9061 265° West 451 519 38,000  Level Kansas City Center
Mon 09:01:09 AM 37.9942 -92.0869 265° West 452 520 38,000  Level Kansas City Center
Mon 09:02:10 AM 37.9847 -92.2433 266° West 447 514 38,000  Level Kansas City Center
Mon 09:03:12 AM 37.9731 -92.4014 265° West 451 519 38,000  Level Kansas City Center
Mon 09:04:14 AM 37.9633 -92.5614 266° West 454 522 38,000  Level Kansas City Center
Mon 09:05:16 AM 37.9508 -92.7206 264° West 454 522 38,000  Level Kansas City Center
Mon 09:06:18 AM 37.9364 -92.9086 264° West 455 524 38,000  Level Kansas City Center
Mon 09:07:19 AM 37.9239 -93.0694 264° West 457 526 38,000  Level Kansas City Center
Mon 09:08:21 AM 37.9125 -93.2297 265° West 457 526 38,000  Level Kansas City Center
Mon 09:09:23 AM 37.9000 -93.3911 264° West 459 528 38,000  Level Kansas City Center
Mon 09:10:25 AM 37.8861 -93.5531 264° West 461 531 38,000  Level Kansas City Center
Mon 09:11:26 AM 37.8733 -93.7144 264° West 461 531 38,000  Level Kansas City Center
Mon 09:12:28 AM 37.8603 -93.8747 264° West 460 529 38,000  Level Kansas City Center
Mon 09:13:30 AM 37.8433 -94.0683 264° West 460 529 38,000  Level Kansas City Center
Mon 09:14:32 AM 37.8303 -94.2286 264° West 459 528 38,000  Level Kansas City Center
Mon 09:15:34 AM 37.8150 -94.3903 263° West 461 531 38,000  Level Kansas City Center
Mon 09:16:36 AM 37.8008 -94.5581 264° West 460 529 38,000  Level Kansas City Center
Mon 09:17:38 AM 37.7867 -94.7142 263° West 464 534 38,000  Level Kansas City Center
Mon 09:18:40 AM 37.7694 -94.8969 263° West 466 536 38,000  Level Kansas City Center
Mon 09:19:42 AM 37.7553 -95.0525 263° West 467 537 38,000 48 Level Kansas City Center
Mon 09:20:44 AM 37.7408 -95.2100 263° West 468 539 38,100 387 Climbing Kansas City Center
Mon 09:21:46 AM 37.7017 -95.3964 255° West 458 527 38,800 823 Climbing Kansas City Center
Mon 09:22:48 AM 37.6606 -95.5456 251° West 453 521 39,800 581 Climbing Kansas City Center
Mon 09:23:50 AM 37.6194 -95.6933 251° West 449 517 40,000 97 Climbing Kansas City Center
Mon 09:24:52 AM 37.5772 -95.8358 250° West 441 507 40,000  Level Kansas City Center
Mon 09:25:54 AM 37.5358 -95.9842 251° West 445 512 40,000  Level Kansas City Center
Mon 09:26:56 AM 37.4936 -96.1317 250° West 448 516 40,000  Level Kansas City Center
Mon 09:27:58 AM 37.4431 -96.3081 250° West 448 516 40,000  Level Kansas City Center
Mon 09:29:00 AM 37.3997 -96.4547 250° West 447 514 40,000  Level Kansas City Center
Mon 09:30:02 AM 37.3625 -96.5836 250° West 448 516 40,000  Level Kansas City Center
Mon 09:31:04 AM 37.3108 -96.7594 250° West 446 513 40,000  Level Kansas City Center
Mon 09:32:06 AM 37.2683 -96.9025 250° West 441 507 40,000  Level Kansas City Center
Mon 09:33:08 AM 37.2256 -97.0472 250° West 440 506 40,000  Level Kansas City Center
Mon 09:34:10 AM 37.1836 -97.1892 250° West 437 503 40,000  Level Kansas City Center
Mon 09:35:12 AM 37.1414 -97.3317 250° West 435 501 40,000  Level Kansas City Center
Mon 09:36:14 AM 37.0872 -97.4636 243° Southwest 427 491 40,000  Level Kansas City Center
Mon 09:37:16 AM 37.0292 -97.5944 241° Southwest 428 493 40,000  Level Kansas City Center
Mon 09:38:18 AM 36.9578 -97.7561 241° Southwest 437 503 40,000  Level Kansas City Center
Mon 09:39:20 AM 36.8997 -97.8850 241° Southwest 431 496 40,000  Level Kansas City Center
Mon 09:40:22 AM 36.8419 -98.0136 241° Southwest 428 493 40,000  Level Kansas City Center
Mon 09:41:24 AM 36.7831 -98.1461 241° Southwest 427 491 40,000  Level Kansas City Center
Mon 09:42:26 AM 36.7469 -98.2867 252° West 426 490 40,000  Level Kansas City Center
Mon 09:43:28 AM 36.7336 -98.4333 264° West 427 491 40,000  Level Kansas City Center
Mon 09:44:30 AM 36.7211 -98.5786 264° West 426 490 40,000  Level Kansas City Center
Mon 09:45:32 AM 36.7056 -98.7508 264° West 422 486 40,000  Level Kansas City Center
Mon 09:46:34 AM 36.6933 -98.8958 264° West 421 484 40,000  Level Kansas City Center
Mon 09:47:36 AM 36.6808 -99.0381 264° West 419 482 40,000  Level Kansas City Center
Mon 09:48:38 AM 36.6686 -99.1783 264° West 413 475 40,000  Level Kansas City Center
Mon 09:49:40 AM 36.6561 -99.3169 264° West 407 468 40,000  Level Kansas City Center
Mon 09:50:42 AM 36.6433 -99.4550 263° West 404 465 40,000  Level Kansas City Center
Mon 09:51:45 AM 36.6292 -99.6192 264° West 401 461 40,000  Level Kansas City Center
Mon 09:52:47 AM 36.6156 -99.7578 263° West 402 463 40,000  Level Kansas City Center
Mon 09:53:49 AM 36.6019 -99.8933 263° West 400 460 40,000  Level Kansas City Center
Mon 09:54:51 AM 36.5889 -100.0311 263° West 399 459 40,000  Level Kansas City Center
Mon 09:55:53 AM 36.5750 -100.1669 263° West 397 457 40,000  Level Kansas City Center
Mon 09:56:55 AM 36.5617 -100.3028 263° West 397 457 40,000  Level Kansas City Center
Mon 09:57:57 AM 36.5461 -100.4636 263° West 396 456 40,000  Level Kansas City Center
Mon 09:59:01 AM 36.5322 -100.5958 263° West 399 459 40,000  Level Kansas City Center
Mon 10:00:03 AM 36.5167 -100.7478 263° West 397 457 40,000  Level Kansas City Center
Mon 10:01:46 AM 36.4914 -100.9867 263° West 398 458 40,000  Level Albuquerque Center
Mon 10:02:47 AM 36.4781 -101.1183 263° West 399 459 40,000  Level Albuquerque Center
Mon 10:03:48 AM 36.4642 -101.2503 263° West 400 460 40,000  Level Albuquerque Center
Mon 10:04:50 AM 36.4481 -101.4058 263° West 404 465 40,000  Level Albuquerque Center
Mon 10:07:17 AM 36.4122 -101.7242 262° West 393 452 40,000  Level Kansas City Center
Mon 10:07:54 AM 36.4036 -101.8053 263° West 392 451 40,000  Level Albuquerque Center
Mon 10:08:56 AM 36.3889 -101.9386 262° West 392 451 40,000  Level Albuquerque Center
Mon 10:09:58 AM 36.3736 -102.0733 262° West 395 455 40,000  Level Albuquerque Center
Mon 10:10:59 AM 36.3544 -102.2353 262° West 396 456 40,000  Level Albuquerque Center
Mon 10:12:01 AM 36.3383 -102.3722 262° West 401 461 40,000  Level Albuquerque Center
Mon 10:13:02 AM 36.3217 -102.5094 261° West 405 466 40,000  Level Albuquerque Center
Mon 10:14:04 AM 36.3064 -102.6475 262° West 406 467 40,000  Level Albuquerque Center
Mon 10:15:06 AM 36.2889 -102.7861 261° West 408 470 40,000  Level Albuquerque Center
Mon 10:16:07 AM 36.2706 -102.9344 261° West 409 471 40,000  Level Albuquerque Center
Mon 10:17:09 AM 36.2542 -103.0764 262° West 412 474 40,000  Level Albuquerque Center
Mon 10:18:11 AM 36.2356 -103.2164 261° West 411 473 40,000  Level Albuquerque Center
Mon 10:19:13 AM 36.2161 -103.3833 262° West 416 479 40,000  Level Albuquerque Center
Mon 10:20:15 AM 36.1986 -103.5264 261° West 417 480 40,000  Level Albuquerque Center
Mon 10:21:16 AM 36.1806 -103.6692 261° West 417 480 40,000  Level Albuquerque Center
Mon 10:22:18 AM 36.1622 -103.8114 261° West 417 480 40,000  Level Albuquerque Center
Mon 10:23:20 AM 36.1442 -103.9497 261° West 411 473 40,000  Level Albuquerque Center
Mon 10:24:22 AM 36.1250 -104.0872 260° West 406 467 40,000  Level Albuquerque Center
Mon 10:25:24 AM 36.1069 -104.2275 261° West 409 471 40,000  Level Albuquerque Center
Mon 10:26:26 AM 36.0875 -104.3664 260° West 409 471 40,000  Level Albuquerque Center
Mon 10:27:27 AM 36.0661 -104.5308 261° West 412 474 40,000  Level Albuquerque Center
Mon 10:28:29 AM 36.0464 -104.6736 260° West 417 480 40,000  Level Albuquerque Center
Mon 10:29:31 AM 36.0272 -104.8128 260° West 413 475 40,000  Level Albuquerque Center
Mon 10:30:33 AM 36.0067 -104.9558 260° West 417 480 40,000  Level Albuquerque Center
Mon 10:31:35 AM 35.9869 -105.0983 260° West 419 482 40,000  Level Albuquerque Center
Mon 10:32:37 AM 35.9675 -105.2397 260° West 416 479 40,000  Level Albuquerque Center
Mon 10:33:39 AM 35.9431 -105.4039 260° West 415 478 40,000  Level Albuquerque Center
Mon 10:34:41 AM 35.9228 -105.5461 260° West 416 479 40,000  Level Albuquerque Center
Mon 10:35:43 AM 35.9047 -105.6650 259° West 420 483 40,000  Level Albuquerque Center
Mon 10:36:45 AM 35.8789 -105.8356 259° West 422 486 40,000  Level Albuquerque Center
Mon 10:37:47 AM 35.8581 -105.9806 260° West 428 493 40,000  Level Albuquerque Center
Mon 10:38:49 AM 35.8375 -106.1267 260° West 431 496 40,000  Level Albuquerque Center
Mon 10:39:51 AM 35.8139 -106.2911 260° West 433 498 40,000  Level Albuquerque Center
Mon 10:40:53 AM 35.7914 -106.4300 259° West 432 497 40,000  Level Albuquerque Center
Mon 10:41:56 AM 35.7667 -106.5931 259° West 433 498 40,000  Level Albuquerque Center
Mon 10:42:58 AM 35.7450 -106.7325 259° West 434 499 40,000  Level Albuquerque Center
Mon 10:44:00 AM 35.7242 -106.8714 260° West 431 496 40,000  Level Albuquerque Center
Mon 10:45:02 AM 35.6986 -107.0333 259° West 431 496 40,000  Level Albuquerque Center
Mon 10:46:04 AM 35.6767 -107.1697 259° West 427 491 40,000  Level Albuquerque Center
Mon 10:47:06 AM 35.6511 -107.3275 259° West 423 487 40,000  Level Albuquerque Center
Mon 10:48:08 AM 35.6300 -107.4631 259° West 421 484 40,000  Level Albuquerque Center
Mon 10:49:10 AM 35.6044 -107.6208 259° West 420 483 40,000  Level Albuquerque Center
Mon 10:50:12 AM 35.5814 -107.7567 258° West 423 487 40,000  Level Albuquerque Center
Mon 10:51:14 AM 35.5567 -107.9131 259° West 419 482 40,000  Level Albuquerque Center
Mon 10:52:16 AM 35.5336 -108.0483 258° West 420 483 40,000  Level Albuquerque Center
Mon 10:53:18 AM 35.5064 -108.2050 258° West 420 483 40,000  Level Albuquerque Center
Mon 10:54:20 AM 35.4831 -108.3397 258° West 420 483 40,000  Level Albuquerque Center
Mon 10:55:22 AM 35.4600 -108.4758 258° West 421 484 40,000  Level Albuquerque Center
Mon 10:56:24 AM 35.4333 -108.6356 258° West 425 489 40,000  Level Albuquerque Center
Mon 10:57:26 AM 35.4097 -108.7714 258° West 425 489 40,000  Level Albuquerque Center
Mon 10:58:28 AM 35.3822 -108.9289 258° West 422 486 40,000  Level Albuquerque Center
Mon 10:59:30 AM 35.3578 -109.0656 258° West 425 489 40,000  Level Albuquerque Center
Mon 11:00:32 AM 35.3306 -109.2244 258° West 425 489 40,000  Level Albuquerque Center
Mon 11:01:34 AM 35.3058 -109.3603 257° West 425 489 40,000  Level Albuquerque Center
Mon 11:02:36 AM 35.2775 -109.5183 258° West 425 489 40,000  Level Albuquerque Center
Mon 11:03:38 AM 35.2525 -109.6528 257° West 422 486 40,000  Level Albuquerque Center
Mon 11:04:40 AM 35.2269 -109.7914 257° West 430 495 40,000  Level Albuquerque Center
Mon 11:05:42 AM 35.1978 -109.9556 258° West 438 504 40,000  Level Albuquerque Center
Mon 11:06:44 AM 35.1711 -110.0936 257° West 437 503 40,000  Level Albuquerque Center
Mon 11:07:46 AM 35.1400 -110.2544 257° West 436 502 40,000  Level Albuquerque Center
Mon 11:08:48 AM 35.1142 -110.3919 257° West 434 499 40,000  Level Albuquerque Center
Mon 11:09:50 AM 35.0828 -110.5528 257° West 435 501 40,000  Level Albuquerque Center
Mon 11:10:52 AM 35.0550 -110.6911 256° West 438 504 40,000  Level Albuquerque Center
Mon 11:11:54 AM 35.0286 -110.8294 257° West 438 504 40,000  Level Albuquerque Center
Mon 11:12:57 AM 35.0022 -110.9708 257° West 433 498 40,000  Level Albuquerque Center
Mon 11:13:59 AM 34.9708 -111.1425 257° West 434 499 40,000  Level Albuquerque Center
Mon 11:15:01 AM 34.9436 -111.2836 257° West 433 498 40,000  Level Albuquerque Center
Mon 11:16:03 AM 34.9164 -111.4225 257° West 427 491 40,000  Level Albuquerque Center
Mon 11:17:05 AM 34.8881 -111.5636 256° West 429 494 40,000  Level Albuquerque Center
Mon 11:18:07 AM 34.8603 -111.7042 256° West 430 495 40,000  Level Albuquerque Center
Mon 11:19:09 AM 34.8306 -111.8542 256° West 437 503 40,000  Level Albuquerque Center
Mon 11:20:11 AM 34.7950 -112.0261 256° West 438 504 40,000  Level Albuquerque Center
Mon 11:21:13 AM 34.7658 -112.1678 256° West 436 502 40,000  Level Albuquerque Center
Mon 11:22:15 AM 34.7389 -112.3017 256° West 433 498 40,000  Level Albuquerque Center
Mon 11:23:17 AM 34.7086 -112.4497 256° West 431 496 40,000  Level Albuquerque Center
Mon 11:24:19 AM 34.6883 -112.5933 260° West 433 498 40,000  Level Albuquerque Center
Mon 11:25:21 AM 34.6725 -112.7369 262° West 431 496 40,000  Level Albuquerque Center
Mon 11:26:23 AM 34.6517 -112.9072 262° West 428 493 40,000  Level Albuquerque Center
Mon 11:27:25 AM 34.6344 -113.0525 262° West 431 496 40,000  Level Albuquerque Center
Mon 11:28:27 AM 34.6172 -113.1972 262° West 433 498 40,000  Level Albuquerque Center
Mon 11:29:29 AM 34.5992 -113.3400 261° West 431 496 40,000  Level Albuquerque Center
Mon 11:30:31 AM 34.5811 -113.4828 261° West 430 495 40,000  Level Albuquerque Center
Mon 11:31:33 AM 34.5628 -113.6267 261° West 431 496 40,000  Level Albuquerque Center
Mon 11:32:35 AM 34.5317 -113.7867 257° West 432 497 40,000  Level Albuquerque Center
Mon 11:33:37 AM 34.5028 -113.9275 256° West 431 496 40,000  Level Albuquerque Center
Mon 11:35:38 AM 34.4508 -114.2228 258° West 428 493 40,000  Level Los Angeles Center
Mon 11:36:40 AM 34.4283 -114.3622 259° West 426 490 40,000  Level Los Angeles Center
Mon 11:37:42 AM 34.4053 -114.5039 259° West 428 493 40,000  Level Los Angeles Center
Mon 11:38:45 AM 34.3831 -114.6436 259° West 426 490 40,000  Level Los Angeles Center
Mon 11:39:47 AM 34.3597 -114.7839 259° West 425 489 40,000  Level Los Angeles Center
Mon 11:40:49 AM 34.3331 -114.9517 259° West 426 490 40,000  Level Los Angeles Center
Mon 11:41:51 AM 34.3094 -115.0933 259° West 431 496 40,000  Level Los Angeles Center
Mon 11:42:53 AM 34.2856 -115.2333 258° West 428 493 40,000  Level Los Angeles Center
Mon 11:43:55 AM 34.2619 -115.3722 258° West 425 489 40,000 -242 Level Los Angeles Center
Mon 11:44:57 AM 34.2383 -115.5150 259° West 432 497 39,500 -864 Descending Los Angeles Center
Mon 11:46:00 AM 34.2081 -115.6836 258° West 431 496 38,200 -1,056 Descending Los Angeles Center
Mon 11:47:02 AM 34.1847 -115.8217 258° West 423 487 37,300 -1,210 Descending Los Angeles Center
Mon 11:48:04 AM 34.1594 -115.9653 258° West 422 486 35,700 -1,839 Descending Los Angeles Center
Mon 11:49:06 AM 34.1350 -116.1056 258° West 426 490 33,500 -2,032 Descending Los Angeles Center
Mon 11:50:08 AM 34.1114 -116.2381 258° West 426 490 31,500 -1,790 Descending Los Angeles Center
Mon 11:51:10 AM 34.0908 -116.3522 258° West 433 498 29,800 -2,468 Descending Los Angeles Center
Mon 11:52:12 AM 34.0558 -116.5536 258° West 438 504 26,400 -2,806 Descending Los Angeles Center
Mon 11:53:14 AM 34.0317 -116.6919 258° West 427 491 24,000 -2,304 Descending Los Angeles Center
Mon 11:54:17 AM 34.0053 -116.8319 257° West 430 495 21,600 -2,081 Descending Los Angeles Center
Mon 11:55:18 AM 33.9850 -116.9456 258° West 434 499 19,700 -2,177 Descending Los Angeles Center
Mon 11:56:21 AM 33.9553 -117.1075 258° West 416 479 17,100 -1,296 Descending Los Angeles Center
Mon 11:57:23 AM 33.9456 -117.2175 264° West 322 371 17,000 -48 Descending Los Angeles Center
Mon 11:58:25 AM 33.9375 -117.3214 265° West 315 362 17,000 -132 Level Los Angeles Center
Mon 11:59:39 AM 33.9578 -117.4428 281° West 320 368 16,700 -2,030 Descending Los Angeles Center
Mon 12:00:38 PM 34.0000 -117.5500 295° West 313 360 12,500 -2,471 Descending Southern California TRACON
Mon 12:01:38 PM 34.0167 -117.6333 284° West 284 327 11,800 -843 Descending Southern California TRACON
Mon 12:02:39 PM 34.0000 -117.7167 256° West 225 259 10,800 -1,100 Descending Southern California TRACON
Mon 12:03:38 PM 34.0000 -117.8000 270° West 229 264 9,600 -1,261 Descending Southern California TRACON
Mon 12:04:38 PM 33.9833 -117.8667 253° West 229 264 8,300 -1,250 Descending Southern California TRACON
Mon 12:05:38 PM 33.9833 -117.9500 270° West 231 266 7,100 -1,150 Descending Southern California TRACON
Mon 12:06:38 PM 33.9667 -118.0167 253° West 205 236 6,000 -1,050 Descending Southern California TRACON
Mon 12:07:38 PM 33.9667 -118.0833 270° West 202 232 5,000 -1,053 Descending Southern California TRACON
Mon 12:08:32 PM 33.9667 -118.1500 270° West 196 226 4,000 -1,086 Descending Southern California TRACON
Mon 12:09:23 PM 33.9572 -118.2028 258° West 200 230 3,100 -1,062 Descending Los Angeles Center
Mon 12:10:25 PM 33.9500 -118.2664 262° West 197 227 2,000 -882 Descending Los Angeles Center
Mon 12:11:39 PM 33.9436 -118.3219 262° West 182 209 1,100 -725 Descending Los Angeles Center
Mon 12:12:54 PM 33.9389 -118.3794 264° West 156 180 200 -720 Descending Los Angeles Center
Mon 12:14:00 PM 33.9333 -118.4000 270° West  Level FlightAware Approximate
Mon 12:21:00 PM 33.9425 -118.4081 270° West  Level Estimated

Login

Don't have an account? Register now (free) for customized features, flight alerts, and more!